Time;durP1;ratioP1;P1;durP2;ratioP2;P2;SDS_P1;SDS_P2;PMS_P1;PMS_P2;Temp;Humidity;BMP_temperature;BMP_pressure;BME280_temperature;BME280_humidity;BME280_pressure;Samples;Min_cycle;Max_cycle;Signal;HPM_P1;HPM_P2
2022/11/12 00:02:11;;;;;;;13.57;10.93;;;;;;;6.44;100.00;153014.28;4970354;28;20574;-87
2022/11/12 00:05:16;;;;;;;13.87;10.57;;;;;;;6.37;100.00;152997.53;4962111;28;20931;-87
2022/11/12 00:08:20;;;;;;;13.60;11.13;;;;;;;6.37;100.00;152996.22;4973132;28;21024;-87
2022/11/12 00:11:24;;;;;;;10.47;9.37;;;;;;;6.35;100.00;152991.06;4970728;28;20485;-87
2022/11/12 00:14:28;;;;;;;11.53;10.33;;;;;;;6.33;100.00;152987.16;4967317;28;20460;-87
2022/11/12 00:17:34;;;;;;;11.30;9.83;;;;;;;6.34;100.00;152988.47;4969402;28;20645;-87
2022/11/12 00:20:39;;;;;;;12.43;10.90;;;;;;;6.29;100.00;152975.56;4969484;28;20446;-86
2022/11/12 00:23:43;;;;;;;10.93;9.83;;;;;;;6.25;100.00;152965.28;4970489;28;20465;-87
2022/11/12 00:26:47;;;;;;;13.00;10.93;;;;;;;6.19;100.00;152951.06;4976172;28;20976;-87
2022/11/12 00:29:51;;;;;;;12.53;11.27;;;;;;;6.16;100.00;152942.03;4979172;28;20488;-86
2022/11/12 00:32:57;;;;;;;13.67;11.80;;;;;;;6.13;100.00;152935.59;4974620;28;20993;-87
2022/11/12 00:36:01;;;;;;;11.17;10.03;;;;;;;6.11;100.00;152930.44;4965290;28;20963;-86
2022/11/12 00:39:06;;;;;;;13.00;10.43;;;;;;;6.06;100.00;152917.53;4971800;28;20449;-86
2022/11/12 00:42:10;;;;;;;13.73;11.47;;;;;;;6.03;100.00;152909.78;4976136;28;20465;-87
2022/11/12 00:45:14;;;;;;;12.93;9.93;;;;;;;6.01;100.00;152904.66;4977282;28;20437;-87
2022/11/12 00:48:19;;;;;;;12.07;10.80;;;;;;;5.97;100.00;152895.59;4966011;28;20481;-87
2022/11/12 00:51:24;;;;;;;13.73;10.60;;;;;;;5.93;100.00;152885.25;4971575;28;20496;-86
2022/11/12 00:54:28;;;;;;;12.60;9.80;;;;;;;5.93;100.00;152885.25;4973087;28;20461;-87
2022/11/12 00:57:32;;;;;;;11.60;10.40;;;;;;;5.93;100.00;152885.25;4975236;28;20908;-87
2022/11/12 01:00:36;;;;;;;11.03;9.70;;;;;;;5.93;100.00;152884.00;4957732;28;20462;-86
2022/11/12 01:03:42;;;;;;;12.53;9.17;;;;;;;5.87;100.00;152869.81;4958174;28;20534;-87
2022/11/12 01:06:45;;;;;;;13.57;10.83;;;;;;;5.86;100.00;152865.91;4967889;28;20446;-86
2022/11/12 01:09:50;;;;;;;13.63;12.10;;;;;;;5.80;100.00;152851.66;4966674;28;20464;-86
2022/11/12 01:12:54;;;;;;;13.07;9.97;;;;;;;5.75;100.00;152838.78;4973007;28;20477;-86
2022/11/12 01:15:58;;;;;;;15.33;10.30;;;;;;;5.69;100.00;152823.34;4971436;28;20995;-87
2022/11/12 01:19:05;;;;;;;10.37;9.30;;;;;;;5.66;100.00;152814.28;4954285;29;20414;-86
2022/11/12 01:22:10;;;;;;;10.53;9.43;;;;;;;5.66;100.00;152814.28;4954526;29;20511;-86
2022/11/12 01:25:14;;;;;;;13.67;10.27;;;;;;;5.61;100.00;152802.72;4967311;28;20999;-86
2022/11/12 01:28:19;;;;;;;14.90;11.03;;;;;;;5.57;100.00;152791.06;4975190;28;20514;-87
2022/11/12 01:31:26;;;;;;;13.40;11.20;;;;;;;5.52;100.00;152779.47;4971862;28;20430;-86
2022/11/12 01:34:31;;;;;;;12.17;10.73;;;;;;;5.48;100.00;152769.19;4969656;28;21010;-85
2022/11/12 01:37:35;;;;;;;13.50;11.30;;;;;;;5.39;100.00;152747.25;4976907;28;20476;-86
2022/11/12 01:40:39;;;;;;;13.43;11.30;;;;;;;5.35;100.00;152736.91;4973577;28;20453;-85
2022/11/12 01:43:44;;;;;;;14.73;12.73;;;;;;;5.32;100.00;152727.91;4968510;28;20465;-86
2022/11/12 01:46:58;;;;;;;13.13;11.80;;;;;;;5.23;100.00;152704.69;4964676;28;20481;-85
2022/11/12 01:50:14;;;;;;;12.93;11.30;;;;;;;5.19;100.00;152694.41;4976274;28;20561;-86
2022/11/12 01:53:20;;;;;;;10.10;9.10;;;;;;;5.15;100.00;152685.38;4980402;28;20882;-86
2022/11/12 01:56:27;;;;;;;10.43;9.33;;;;;;;5.17;100.00;152690.50;4992026;28;20421;-86
2022/11/12 01:59:34;;;;;;;13.50;9.33;;;;;;;5.19;100.00;152695.66;4964352;28;20476;-87
2022/11/12 02:02:40;;;;;;;11.93;9.90;;;;;;;5.18;100.00;152691.81;4951734;29;20454;-87
2022/11/12 02:05:46;;;;;;;10.00;8.63;;;;;;;5.15;100.00;152684.06;4953211;28;20442;-87
2022/11/12 02:08:51;;;;;;;11.37;10.27;;;;;;;5.11;100.00;152675.03;4954731;29;20987;-87
2022/11/12 02:11:55;;;;;;;9.40;8.40;;;;;;;5.13;100.00;152678.94;4952157;29;20518;-87
2022/11/12 02:14:58;;;;;;;9.53;8.33;;;;;;;5.14;100.00;152681.47;4950015;29;20444;-87
2022/11/12 02:18:03;;;;;;;8.77;7.87;;;;;;;5.14;100.00;152682.78;4952118;29;20491;-86
2022/11/12 02:21:09;;;;;;;9.57;8.40;;;;;;;5.13;100.00;152678.94;4952529;29;20486;-86
2022/11/12 02:24:36;;;;;;;9.90;8.50;;;;;;;5.12;100.00;152677.63;4953569;29;20495;-86
2022/11/12 02:27:40;;;;;;;10.13;8.60;;;;;;;5.10;100.00;152671.19;4950729;28;20451;-87
2022/11/12 02:30:47;;;;;;;9.40;8.40;;;;;;;5.05;100.00;152658.31;4941766;29;20422;-87
2022/11/12 02:33:51;;;;;;;9.43;8.50;;;;;;;5.05;100.00;152659.59;4952183;29;20511;-87
2022/11/12 02:36:55;;;;;;;10.50;8.43;;;;;;;5.06;100.00;152660.84;4945192;29;20518;-87
2022/11/12 02:40:00;;;;;;;9.20;7.73;;;;;;;5.06;100.00;152660.84;4948283;29;20419;-87
2022/11/12 02:43:05;;;;;;;10.37;8.73;;;;;;;5.05;100.00;152659.59;4954842;29;20446;-87
2022/11/12 02:46:09;;;;;;;11.00;8.60;;;;;;;5.01;100.00;152647.97;4954373;29;20450;-87
2022/11/12 02:49:14;;;;;;;9.33;7.87;;;;;;;5.02;100.00;152650.56;4941389;29;21042;-87
2022/11/12 02:52:18;;;;;;;9.07;8.17;;;;;;;4.99;100.00;152644.13;4954483;29;20446;-87
2022/11/12 02:55:23;;;;;;;10.50;9.07;;;;;;;4.91;100.00;152624.78;4950287;29;20934;-86
2022/11/12 02:58:28;;;;;;;9.67;8.67;;;;;;;4.87;100.00;152614.47;4951495;28;20454;-87
2022/11/12 03:01:32;;;;;;;10.23;9.20;;;;;;;4.84;100.00;152606.72;4957837;28;20465;-87
2022/11/12 03:04:37;;;;;;;8.97;8.00;;;;;;;4.79;100.00;152593.84;4982012;28;20785;-86
2022/11/12 03:07:41;;;;;;;9.33;8.43;;;;;;;4.74;100.00;152580.97;4971799;28;20445;-87
2022/11/12 03:10:46;;;;;;;11.27;8.97;;;;;;;4.73;100.00;152578.41;4974273;28;20456;-87
2022/11/12 03:13:51;;;;;;;11.30;8.37;;;;;;;4.70;100.00;152570.66;4965224;28;21059;-86
2022/11/12 03:16:55;;;;;;;9.53;8.53;;;;;;;4.65;100.00;152557.78;4954021;29;20651;-87
2022/11/12 03:19:59;;;;;;;9.47;8.47;;;;;;;4.64;100.00;152555.19;4953313;29;20462;-87
2022/11/12 03:23:06;;;;;;;9.03;8.10;;;;;;;4.63;100.00;152552.59;4960501;28;20461;-87
2022/11/12 03:26:11;;;;;;;9.70;8.70;;;;;;;4.54;100.00;152528.13;4964864;28;20460;-87
2022/11/12 03:29:15;;;;;;;9.73;8.23;;;;;;;4.53;100.00;152526.84;4973465;28;20414;-87
2022/11/12 03:32:19;;;;;;;9.70;8.17;;;;;;;4.44;100.00;152502.38;4971866;28;20497;-87
2022/11/12 03:35:23;;;;;;;10.60;7.60;;;;;;;4.40;100.00;152492.06;4974117;28;20502;-87
2022/11/12 03:38:27;;;;;;;7.97;7.27;;;;;;;4.35;100.00;152480.47;4974327;28;20928;-87
2022/11/12 03:41:33;;;;;;;8.50;7.70;;;;;;;4.30;100.00;152468.91;4963776;28;20614;-87
2022/11/12 03:44:37;;;;;;;7.03;6.33;;;;;;;4.29;100.00;152465.00;4954793;29;20427;-86
2022/11/12 03:47:43;;;;;;;9.83;8.50;;;;;;;4.22;100.00;152448.28;4954691;29;20463;-87
2022/11/12 03:50:47;;;;;;;9.60;8.07;;;;;;;4.19;100.00;152439.25;4963719;28;20462;-87
2022/11/12 03:53:51;;;;;;;8.23;7.40;;;;;;;4.16;100.00;152432.81;4973487;28;20485;-87
2022/11/12 03:56:57;;;;;;;8.07;7.27;;;;;;;4.12;100.00;152421.25;4972730;28;20521;-86
2022/11/12 04:00:01;;;;;;;9.60;8.20;;;;;;;4.11;100.00;152418.66;4966823;28;20453;-86
2022/11/12 04:03:05;;;;;;;7.70;7.00;;;;;;;4.09;100.00;152413.50;4973893;28;20819;-87
2022/11/12 04:09:31;;;;;;;8.50;7.07;;;;;;;4.08;100.00;152410.91;4966158;28;20501;-87
2022/11/12 04:22:46;;;;;;;7.20;6.10;;;;;;;4.08;100.00;152412.22;4972415;28;20891;-86
2022/11/12 04:32:36;;;;;;;6.43;5.83;;;;;;;4.13;100.00;152425.09;4973944;28;20429;-87
2022/11/12 04:35:40;;;;;;;6.60;5.90;;;;;;;4.16;100.00;152431.53;4977781;28;21000;-86
2022/11/12 04:38:44;;;;;;;6.90;6.20;;;;;;;4.13;100.00;152425.09;4957801;28;20478;-87
2022/11/12 04:45:12;;;;;;;7.07;6.30;;;;;;;4.13;100.00;152423.84;4966339;28;20601;-87
2022/11/12 04:48:16;;;;;;;6.23;5.63;;;;;;;4.12;100.00;152421.25;4966505;28;20431;-87
2022/11/12 04:54:42;;;;;;;6.00;5.23;;;;;;;4.05;100.00;152404.47;4967779;28;20569;-87
2022/11/12 04:57:46;;;;;;;5.47;4.80;;;;;;;4.07;100.00;152408.38;4972168;28;20467;-87
2022/11/12 05:00:52;;;;;;;6.60;5.27;;;;;;;4.07;100.00;152408.38;4969109;28;20562;-87
2022/11/12 05:03:56;;;;;;;7.70;6.00;;;;;;;4.07;100.00;152409.66;4970965;28;20512;-87
2022/11/12 05:07:00;;;;;;;7.30;6.00;;;;;;;4.12;100.00;152422.53;4966362;28;20437;-86
2022/11/12 05:10:05;;;;;;;6.33;5.70;;;;;;;4.14;100.00;152426.38;4965028;28;20465;-87
2022/11/12 05:13:09;;;;;;;5.93;5.33;;;;;;;4.10;100.00;152416.09;4971973;28;20810;-86
2022/11/12 05:16:14;;;;;;;6.63;5.83;;;;;;;4.13;100.00;152423.84;4973300;28;20425;-87
2022/11/12 05:19:19;;;;;;;6.60;5.70;;;;;;;4.11;100.00;152419.94;4972252;28;20493;-87
2022/11/12 05:22:23;;;;;;;5.37;4.83;;;;;;;4.10;100.00;152417.34;4965643;28;21069;-87
2022/11/12 05:25:28;;;;;;;5.90;5.30;;;;;;;4.10;100.00;152416.09;4963541;28;20426;-87
2022/11/12 05:28:32;;;;;;;6.57;5.57;;;;;;;4.13;100.00;152423.84;4967549;28;20461;-87
2022/11/12 05:31:37;;;;;;;5.70;5.10;;;;;;;4.10;100.00;152417.34;4975382;28;20495;-87
2022/11/12 05:34:42;;;;;;;6.57;5.40;;;;;;;4.10;100.00;152417.34;4964727;28;20514;-87
2022/11/12 05:37:46;;;;;;;5.53;4.97;;;;;;;4.10;100.00;152417.34;4970252;28;21032;-87
2022/11/12 05:40:50;;;;;;;6.53;5.00;;;;;;;4.13;100.00;152423.84;4970155;28;20605;-87
2022/11/12 05:43:54;;;;;;;5.40;4.60;;;;;;;4.10;100.00;152417.34;4964887;28;20522;-87
2022/11/12 05:47:00;;;;;;;6.80;5.93;;;;;;;4.04;100.00;152401.94;4973588;28;20437;-87
2022/11/12 05:50:05;;;;;;;6.90;5.50;;;;;;;4.01;100.00;152394.19;4970436;28;20520;-86
2022/11/12 05:53:09;;;;;;;7.60;6.60;;;;;;;4.03;100.00;152398.03;4975484;28;20430;-87
2022/11/12 05:56:14;;;;;;;9.40;5.90;;;;;;;3.98;100.00;152385.16;4974987;28;20566;-87
2022/11/12 05:59:18;;;;;;;6.27;5.23;;;;;;;3.95;100.00;152377.44;4970182;28;20453;-87
2022/11/12 06:02:23;;;;;;;8.13;6.67;;;;;;;3.91;100.00;152367.16;4974152;28;20840;-87
2022/11/12 06:05:27;;;;;;;10.97;5.90;;;;;;;3.89;100.00;152363.25;4974686;28;20581;-87
2022/11/12 06:08:31;;;;;;;6.80;5.23;;;;;;;3.89;100.00;152363.25;4970938;28;20453;-86
2022/11/12 06:11:36;;;;;;;8.47;6.00;;;;;;;3.87;100.00;152356.81;4958641;28;20545;-87
2022/11/12 06:14:40;;;;;;;6.57;5.63;;;;;;;3.89;100.00;152362.00;4971969;28;20573;-87
2022/11/12 06:17:46;;;;;;;8.70;5.70;;;;;;;3.84;100.00;152349.16;4974203;28;20481;-86
2022/11/12 06:24:08;;;;;;;6.93;5.53;;;;;;;3.81;100.00;152341.41;4968810;28;20476;-86
2022/11/12 06:27:12;;;;;;;9.37;5.93;;;;;;;3.80;100.00;152338.81;4955892;29;20403;-86
2022/11/12 06:30:16;;;;;;;6.10;4.90;;;;;;;3.81;100.00;152341.41;4965167;28;20542;-86
2022/11/12 06:33:22;;;;;;;7.10;5.70;;;;;;;3.79;100.00;152336.22;4971911;28;20843;-87
2022/11/12 06:36:27;;;;;;;16.87;5.77;;;;;;;3.76;100.00;152328.53;4960940;29;20817;-86
2022/11/12 06:39:31;;;;;;;11.50;6.00;;;;;;;3.75;100.00;152327.25;4971941;28;20445;-86
2022/11/12 06:42:36;;;;;;;8.43;5.23;;;;;;;3.72;100.00;152318.22;4979120;28;20469;-87
2022/11/12 06:45:40;;;;;;;6.90;6.20;;;;;;;3.71;100.00;152315.69;4956100;29;20996;-87
2022/11/12 06:48:46;;;;;;;7.00;5.53;;;;;;;3.74;100.00;152324.66;4971118;28;20426;-87
2022/11/12 06:51:50;;;;;;;6.67;6.00;;;;;;;3.77;100.00;152332.38;4972629;28;20948;-86
2022/11/12 06:54:54;;;;;;;6.47;5.43;;;;;;;3.85;100.00;152351.69;4974029;28;20824;-87
2022/11/12 06:57:58;;;;;;;5.77;4.93;;;;;;;3.88;100.00;152359.44;4974565;28;20449;-86
2022/11/12 07:01:07;;;;;;;5.30;4.57;;;;;;;3.92;100.00;152369.75;4972575;28;20525;-87
2022/11/12 07:04:13;;;;;;;7.53;6.13;;;;;;;3.99;100.00;152389.06;4968194;28;20465;-87
2022/11/12 07:07:17;;;;;;;5.63;5.07;;;;;;;4.17;100.00;152434.13;4972770;28;20485;-87
2022/11/12 07:10:21;;;;;;;7.20;5.70;;;;;;;4.32;100.00;152474.03;4972463;28;20493;-86
2022/11/12 07:13:25;;;;;;;7.03;6.17;;;;;;;4.55;100.00;152532.03;4974210;28;20445;-87
2022/11/12 07:16:29;;;;;;;6.70;5.77;;;;;;;4.82;100.00;152601.56;4973818;28;20498;-86
2022/11/12 07:19:35;;;;;;;7.00;6.37;;;;;;;4.99;100.00;152642.81;4971261;28;20461;-86
2022/11/12 07:22:39;;;;;;;7.23;5.97;;;;;;;5.13;100.00;152680.22;4971804;28;20500;-84
2022/11/12 07:25:43;;;;;;;6.77;5.50;;;;;;;5.43;100.00;152756.25;4988468;28;20675;-87
2022/11/12 07:28:49;;;;;;;6.37;5.60;;;;;;;5.51;100.00;152778.19;4978662;28;20450;-87
2022/11/12 07:31:53;;;;;;;5.40;4.90;;;;;;;5.54;100.00;152784.63;4974035;28;20410;-87
2022/11/12 07:34:58;;;;;;;8.40;5.63;;;;;;;5.50;100.00;152775.63;4973211;28;20481;-87
2022/11/12 07:38:03;;;;;;;6.33;5.67;;;;;;;5.44;100.00;152760.13;4973410;28;20453;-87
2022/11/12 07:41:09;;;;;;;6.00;5.33;;;;;;;5.41;100.00;152751.09;4958312;28;20466;-87
2022/11/12 07:44:14;;;;;;;8.57;6.87;;;;;;;5.25;100.00;152709.84;4954781;29;20465;-87
2022/11/12 07:47:18;;;;;;;6.70;5.60;;;;;;;5.17;100.00;152690.50;4963849;28;20477;-86
2022/11/12 07:50:23;;;;;;;7.47;5.80;;;;;;;5.11;100.00;152673.78;4973359;28;20941;-86
2022/11/12 07:53:28;;;;;;;6.80;5.83;;;;;;;5.05;100.00;152659.59;4974060;28;21036;-86
2022/11/12 07:56:32;;;;;;;6.90;6.20;;;;;;;5.03;100.00;152654.41;4971177;28;20864;-86
2022/11/12 07:59:36;;;;;;;8.23;6.30;;;;;;;4.96;100.00;152636.38;4974481;28;20438;-87
2022/11/12 08:02:41;;;;;;;6.70;5.63;;;;;;;5.02;100.00;152650.56;4955345;29;20406;-86
2022/11/12 08:05:46;;;;;;;7.27;6.10;;;;;;;4.98;100.00;152640.28;4969822;28;20457;-87
2022/11/12 08:08:51;;;;;;;7.63;6.33;;;;;;;5.01;100.00;152647.97;4974217;28;20422;-87
2022/11/12 08:11:55;;;;;;;9.30;6.87;;;;;;;5.03;100.00;152654.41;4970603;28;20477;-87
2022/11/12 08:15:00;;;;;;;10.30;7.43;;;;;;;5.01;100.00;152649.25;4971894;28;20536;-87
2022/11/12 08:18:04;;;;;;;10.17;7.97;;;;;;;5.07;100.00;152663.44;4977813;28;20480;-87
2022/11/12 08:21:12;;;;;;;11.03;7.43;;;;;;;5.16;100.00;152687.97;4974085;28;20518;-87
2022/11/12 08:24:16;;;;;;;10.40;7.97;;;;;;;5.28;100.00;152718.88;4971433;28;20454;-87
2022/11/12 08:27:20;;;;;;;10.63;8.40;;;;;;;5.37;100.00;152742.09;4972178;28;21016;-86
2022/11/12 08:30:25;;;;;;;10.40;8.67;;;;;;;5.52;100.00;152779.47;4973205;28;20463;-86
2022/11/12 08:33:30;;;;;;;9.07;7.30;;;;;;;5.66;100.00;152815.59;4970933;28;20531;-86
2022/11/12 08:36:36;;;;;;;11.07;8.17;;;;;;;5.75;100.00;152838.78;4971864;28;20862;-87
2022/11/12 08:39:40;;;;;;;11.13;8.10;;;;;;;5.82;100.00;152856.88;4977111;28;20441;-87
2022/11/12 08:42:45;;;;;;;10.03;8.40;;;;;;;5.83;100.00;152858.13;4977142;28;20433;-87
2022/11/12 08:45:50;;;;;;;10.53;8.77;;;;;;;5.85;100.00;152864.63;4979383;28;20563;-87
2022/11/12 08:48:54;;;;;;;10.73;8.10;;;;;;;5.86;100.00;152867.22;4971767;28;20453;-87
2022/11/12 08:52:00;;;;;;;11.43;7.87;;;;;;;5.94;100.00;152887.84;4973377;28;20518;-87
2022/11/12 08:55:05;;;;;;;9.97;7.40;;;;;;;6.05;100.00;152916.25;4963155;28;20501;-87
2022/11/12 08:58:10;;;;;;;9.40;7.20;;;;;;;6.09;100.00;152925.22;4976411;28;20429;-87
2022/11/12 09:01:14;;;;;;;10.00;7.30;;;;;;;6.13;100.00;152935.59;4976127;28;20473;-87
2022/11/12 09:04:18;;;;;;;8.20;7.30;;;;;;;6.24;100.00;152962.66;4973229;28;20481;-87
2022/11/12 09:07:24;;;;;;;10.73;6.80;;;;;;;6.31;100.00;152980.72;4958085;28;20848;-87
2022/11/12 09:10:29;;;;;;;7.57;6.27;;;;;;;6.34;100.00;152988.47;4970279;28;20470;-87
2022/11/12 09:13:33;;;;;;;10.63;8.57;;;;;;;6.40;100.00;153003.97;4973652;28;20476;-86
2022/11/12 09:16:37;;;;;;;11.73;7.70;;;;;;;6.45;100.00;153018.16;4976068;28;20806;-87
2022/11/12 09:19:42;;;;;;;12.20;7.03;;;;;;;6.49;100.00;153027.16;4968299;28;20433;-86
2022/11/12 09:22:47;;;;;;;10.30;8.40;;;;;;;6.55;100.00;153043.97;4963486;28;20843;-87
2022/11/12 09:25:52;;;;;;;13.43;9.20;;;;;;;6.64;100.00;153065.91;4970776;28;20447;-87
2022/11/12 09:28:56;;;;;;;10.20;7.87;;;;;;;6.73;100.00;153089.13;4965081;28;20573;-86
2022/11/12 09:32:00;;;;;;;10.03;8.70;;;;;;;6.85;100.00;153120.13;4970618;28;20532;-77
2022/11/12 09:35:06;;;;;;;9.23;7.10;;;;;;;7.07;100.00;153175.66;4973743;28;20473;-76
2022/11/12 09:38:13;;;;;;;8.63;7.40;;;;;;;7.07;100.00;153175.66;4968117;28;20480;-76
2022/11/12 09:41:25;;;;;;;11.10;8.70;;;;;;;7.12;100.00;153189.81;4983686;28;20548;-75
2022/11/12 09:44:30;;;;;;;9.70;7.60;;;;;;;7.24;100.00;153220.81;4975718;28;20503;-75
2022/11/12 09:47:38;;;;;;;8.97;6.77;;;;;;;7.27;100.00;153228.56;4975325;28;20508;-76
2022/11/12 09:50:49;;;;;;;8.80;6.73;;;;;;;7.43;100.00;153268.59;4973729;28;20493;-75
2022/11/12 09:53:56;;;;;;;8.33;6.57;;;;;;;7.48;100.00;153281.50;4965432;28;20454;-75
2022/11/12 09:57:01;;;;;;;7.90;7.00;;;;;;;7.65;100.00;153324.16;4977780;28;20804;-75
2022/11/12 10:00:10;;;;;;;8.30;6.77;;;;;;;7.70;100.00;153337.06;4969692;28;20565;-75
2022/11/12 10:03:23;;;;;;;7.57;6.80;;;;;;;7.76;100.00;153352.53;4974642;28;20944;-75
2022/11/12 10:06:31;;;;;;;7.30;6.10;;;;;;;7.77;100.00;153355.13;4973813;28;20488;-75
2022/11/12 10:09:43;;;;;;;8.17;7.10;;;;;;;7.75;100.00;153351.28;4972630;28;20878;-75
2022/11/12 10:13:03;;;;;;;8.50;7.23;;;;;;;7.85;100.00;153375.81;4969239;28;20976;-75
2022/11/12 10:16:42;;;;;;;8.00;7.30;;;;;;;7.87;100.00;153380.97;4969451;28;20830;-75
2022/11/12 10:19:57;;;;;;;8.87;8.07;;;;;;;7.89;100.00;153387.41;4974328;28;20470;-75
2022/11/12 10:23:16;;;;;;;7.50;6.50;;;;;;;7.94;100.00;153400.34;4975127;28;20458;-75
2022/11/12 10:26:23;;;;;;;8.17;6.90;;;;;;;8.06;100.00;153430.06;4973566;28;20931;-86
2022/11/12 10:29:31;;;;;;;8.80;7.30;;;;;;;8.10;100.00;153440.38;4973929;28;20501;-87
2022/11/12 10:32:35;;;;;;;7.90;7.10;;;;;;;8.13;100.00;153448.13;4976483;28;20461;-87
2022/11/12 10:35:40;;;;;;;8.27;7.17;;;;;;;8.21;100.00;153468.81;4976181;28;20469;-86
2022/11/12 10:38:45;;;;;;;8.63;7.30;;;;;;;8.23;100.00;153472.72;4970855;28;20485;-87
2022/11/12 10:42:02;;;;;;;8.17;6.80;;;;;;;8.26;100.00;153481.75;4977115;28;20489;-86
2022/11/12 10:45:20;;;;;;;10.40;8.50;;;;;;;8.31;100.00;153494.72;4970976;28;20454;-86
2022/11/12 10:48:30;;;;;;;8.20;7.40;;;;;;;8.35;100.00;153505.06;4979546;28;20816;-87
2022/11/12 10:51:36;;;;;;;8.67;7.50;;;;;;;8.39;100.00;153514.13;4984604;28;20441;-86
2022/11/12 10:54:40;;;;;;;7.80;6.80;;;;;;;8.49;100.00;153541.28;4987855;28;20481;-86
2022/11/12 10:57:47;;;;;;;7.80;6.53;;;;;;;8.57;100.00;153561.97;4975075;28;20457;-87
2022/11/12 11:01:13;;;;;;;7.23;6.27;;;;;;;8.64;100.00;153577.44;4975476;28;20995;-86
2022/11/12 11:04:25;;;;;;;7.23;6.27;;;;;;;8.70;100.00;153592.97;4975584;28;20465;-87
2022/11/12 11:07:29;;;;;;;7.07;6.37;;;;;;;8.73;100.00;153602.03;4976118;28;20429;-87
2022/11/12 11:10:35;;;;;;;8.80;7.70;;;;;;;8.75;100.00;153605.91;4975112;28;20736;-86
2022/11/12 11:13:41;;;;;;;7.73;7.00;;;;;;;8.79;100.00;153616.25;4974993;28;20434;-87
2022/11/12 11:16:50;;;;;;;11.87;6.67;;;;;;;8.82;100.00;153623.97;4985873;28;20480;-86
2022/11/12 11:19:55;;;;;;;7.50;6.70;;;;;;;8.83;100.00;153626.59;4963909;28;20497;-88
2022/11/12 11:23:02;;;;;;;7.70;6.90;;;;;;;8.93;100.00;153652.44;4956262;29;20447;-87
2022/11/12 11:26:20;;;;;;;6.50;5.77;;;;;;;9.10;100.00;153696.41;4955906;29;20434;-87
2022/11/12 11:29:35;;;;;;;7.87;7.00;;;;;;;9.28;100.00;153742.97;4970338;28;20438;-86
2022/11/12 11:33:12;;;;;;;9.60;7.00;;;;;;;9.22;100.00;153727.44;4961011;28;20494;-87
2022/11/12 11:36:22;;;;;;;7.90;7.10;;;;;;;9.47;100.00;153792.13;4993770;28;20484;-86
2022/11/12 11:39:35;;;;;;;7.33;6.20;;;;;;;9.51;100.00;153802.47;4967698;28;20469;-87
2022/11/12 11:42:55;;;;;;;6.87;5.80;;;;;;;9.56;100.00;153815.41;4962472;28;20996;-87
2022/11/12 11:46:07;;;;;;;5.90;5.33;;;;;;;9.63;100.00;153833.53;4972918;28;20914;-78
2022/11/12 11:49:28;;;;;;;6.97;5.40;;;;;;;9.54;100.00;153810.25;4973284;28;20477;-77
2022/11/12 11:52:42;;;;;;;6.43;5.70;;;;;;;9.52;100.00;153805.06;4955833;28;20516;-78
2022/11/12 11:55:54;;;;;;;5.83;5.17;;;;;;;9.62;99.84;153829.63;4972292;28;20573;-78
2022/11/12 11:59:22;;;;;;;6.60;5.90;;;;;;;9.55;100.00;153811.53;4974563;28;20505;-78
2022/11/12 12:02:39;;;;;;;7.20;5.90;;;;;;;9.47;100.00;153792.13;4974812;28;20426;-78
2022/11/12 12:05:48;;;;;;;8.83;7.43;;;;;;;9.56;100.00;153814.09;4965255;28;20526;-78
2022/11/12 12:09:03;;;;;;;6.70;5.77;;;;;;;9.64;100.00;153836.09;4965732;28;20486;-78
2022/11/12 12:12:16;;;;;;;7.67;6.87;;;;;;;9.74;100.00;153860.72;4970067;28;20426;-78
2022/11/12 12:15:45;;;;;;;7.80;7.00;;;;;;;9.83;100.00;153883.97;4962077;28;20552;-77
2022/11/12 12:18:55;;;;;;;7.20;6.07;;;;;;;9.81;100.00;153878.81;4954718;29;20434;-78
2022/11/12 12:21:59;;;;;;;6.10;5.30;;;;;;;9.80;100.00;153877.50;4958609;28;20475;-78
2022/11/12 12:25:09;;;;;;;7.40;6.60;;;;;;;9.84;100.00;153885.28;4973813;28;20809;-78
2022/11/12 12:28:17;;;;;;;7.40;5.70;;;;;;;9.88;100.00;153895.59;4972291;28;20768;-78
2022/11/12 12:31:26;;;;;;;7.43;6.47;;;;;;;9.88;100.00;153896.91;4967388;28;20457;-78
2022/11/12 12:34:34;;;;;;;35.73;16.93;;;;;;;10.04;100.00;153937.03;4966860;28;20917;-78
2022/11/12 12:37:42;;;;;;;10.67;8.90;;;;;;;10.21;100.00;153981.09;4954803;29;20446;-78
2022/11/12 12:40:49;;;;;;;14.43;8.00;;;;;;;10.15;100.00;153965.56;4967031;28;20504;-78
2022/11/12 12:43:56;;;;;;;9.27;8.07;;;;;;;10.20;100.00;153979.81;4966635;28;20457;-78
2022/11/12 12:47:01;;;;;;;7.40;6.60;;;;;;;10.17;100.00;153970.72;4972849;28;20929;-78
2022/11/12 12:50:11;;;;;;;8.20;7.40;;;;;;;10.11;100.00;153956.44;4973192;28;20525;-78
2022/11/12 12:53:17;;;;;;;7.93;7.13;;;;;;;10.11;100.00;153955.19;4978805;28;21054;-78
2022/11/12 12:56:45;;;;;;;8.73;7.93;;;;;;;10.11;100.00;153955.19;4954705;29;20514;-78
2022/11/12 12:59:49;;;;;;;10.10;9.10;;;;;;;10.16;100.00;153969.47;4972444;28;20477;-78
2022/11/12 13:02:54;;;;;;;8.93;8.03;;;;;;;10.24;100.00;153988.88;4970225;28;20489;-78
2022/11/12 13:06:08;;;;;;;8.43;7.50;;;;;;;10.26;100.00;153995.34;4972931;28;20410;-78
2022/11/12 13:09:22;;;;;;;9.03;8.07;;;;;;;10.26;100.00;153994.03;4970598;28;21182;-78
2022/11/12 13:13:05;;;;;;;8.70;7.40;;;;;;;10.24;100.00;153988.88;4973203;28;20941;-78
2022/11/12 13:16:09;;;;;;;7.90;7.10;;;;;;;10.26;100.00;153994.03;4970843;28;20470;-78
2022/11/12 13:19:26;;;;;;;9.43;7.77;;;;;;;10.32;100.00;154009.59;4955337;28;20526;-78
2022/11/12 13:22:48;;;;;;;8.33;7.33;;;;;;;10.43;100.00;154036.78;4954282;29;20473;-78
2022/11/12 13:26:31;;;;;;;8.43;7.43;;;;;;;10.38;100.00;154025.09;4962367;28;21251;-78
2022/11/12 13:29:45;;;;;;;8.40;7.03;;;;;;;10.43;100.00;154038.09;4953501;29;20482;-78
2022/11/12 13:32:54;;;;;;;9.10;7.50;;;;;;;10.44;100.00;154040.63;4955786;28;20443;-78
2022/11/12 13:36:27;;;;;;;8.83;7.73;;;;;;;10.38;100.00;154026.41;4973361;28;20497;-78
2022/11/12 13:39:35;;;;;;;8.53;7.10;;;;;;;10.46;100.00;154044.56;4957656;29;20972;-78
2022/11/12 13:42:49;;;;;;;12.43;7.57;;;;;;;10.48;100.00;154051.03;4957270;29;20427;-78
2022/11/12 13:45:55;;;;;;;11.20;8.67;;;;;;;10.47;100.00;154048.41;4975910;28;20840;-78
2022/11/12 13:49:00;;;;;;;8.93;7.23;;;;;;;10.55;100.00;154069.13;4976606;28;20912;-78
2022/11/12 13:52:05;;;;;;;9.00;8.03;;;;;;;10.49;100.00;154052.28;4971796;28;20443;-78
2022/11/12 13:55:14;;;;;;;9.77;8.77;;;;;;;10.50;100.00;154054.88;4971229;28;20481;-78
2022/11/12 13:58:19;;;;;;;9.53;8.10;;;;;;;10.48;100.00;154049.72;4963651;28;20552;-78
2022/11/12 14:01:24;;;;;;;9.43;8.50;;;;;;;10.46;100.00;154045.81;4967086;28;21112;-78
2022/11/12 14:04:28;;;;;;;9.23;8.30;;;;;;;10.37;100.00;154022.53;4969377;28;20482;-78
2022/11/12 14:07:40;;;;;;;10.50;8.93;;;;;;;10.31;100.00;154008.28;4961837;28;20562;-78
2022/11/12 14:10:54;;;;;;;9.57;8.10;;;;;;;10.38;100.00;154025.09;4973771;28;20454;-82
2022/11/12 14:14:04;;;;;;;9.57;8.47;;;;;;;10.36;100.00;154021.22;4975446;28;20544;-87
2022/11/12 14:17:19;;;;;;;9.00;8.07;;;;;;;10.31;100.00;154007.00;4972424;28;20490;-87
2022/11/12 14:20:25;;;;;;;10.80;8.83;;;;;;;10.26;100.00;153995.34;4962069;28;20992;-87
2022/11/12 14:23:30;;;;;;;8.53;7.60;;;;;;;10.25;100.00;153991.44;4962507;28;20979;-87
2022/11/12 14:26:38;;;;;;;10.57;9.47;;;;;;;10.21;100.00;153982.41;4970490;28;20995;-87
2022/11/12 14:29:42;;;;;;;10.33;8.00;;;;;;;10.22;100.00;153983.66;4964465;28;20458;-87
2022/11/12 14:32:48;;;;;;;9.90;7.87;;;;;;;10.20;100.00;153978.50;4963899;28;20477;-88
2022/11/12 14:35:52;;;;;;;12.90;9.30;;;;;;;10.17;100.00;153970.72;4975114;28;20560;-87
2022/11/12 14:38:57;;;;;;;12.73;9.10;;;;;;;10.16;100.00;153968.16;4973443;28;21044;-87
2022/11/12 14:42:03;;;;;;;9.40;8.03;;;;;;;10.14;100.00;153964.25;4964266;28;20449;-87
2022/11/12 14:45:15;;;;;;;9.13;8.20;;;;;;;10.12;100.00;153957.72;4971688;28;20465;-87
2022/11/12 14:48:19;;;;;;;10.20;8.77;;;;;;;10.09;100.00;153949.97;4965233;28;20857;-88
2022/11/12 14:51:25;;;;;;;9.80;8.80;;;;;;;10.08;100.00;153947.41;4968690;28;20445;-88
2022/11/12 14:54:31;;;;;;;10.97;8.83;;;;;;;10.04;100.00;153938.34;4962631;29;20435;-88